sensor_id;sensor_type;location;lat;lon;timestamp;P1;durP1;ratioP1;P2;durP2;ratioP2
10463;SDS011;5279;42.048;24.638;2023-04-03T00:01:08;0.80;;;0.80;;
10463;SDS011;5279;42.048;24.638;2023-04-03T00:03:41;0.60;;;0.60;;
10463;SDS011;5279;42.048;24.638;2023-04-03T00:06:09;0.40;;;0.40;;
10463;SDS011;5279;42.048;24.638;2023-04-03T00:08:37;0.60;;;0.60;;
10463;SDS011;5279;42.048;24.638;2023-04-03T00:11:04;0.60;;;0.60;;
10463;SDS011;5279;42.048;24.638;2023-04-03T00:13:32;0.63;;;0.63;;
10463;SDS011;5279;42.048;24.638;2023-04-03T00:16:00;0.53;;;0.50;;
10463;SDS011;5279;42.048;24.638;2023-04-03T00:18:29;0.50;;;0.50;;
10463;SDS011;5279;42.048;24.638;2023-04-03T00:20:57;0.60;;;0.60;;
10463;SDS011;5279;42.048;24.638;2023-04-03T00:23:24;0.63;;;0.63;;
10463;SDS011;5279;42.048;24.638;2023-04-03T00:25:51;0.60;;;0.60;;
10463;SDS011;5279;42.048;24.638;2023-04-03T00:28:18;0.50;;;0.50;;
10463;SDS011;5279;42.048;24.638;2023-04-03T00:30:52;0.70;;;0.70;;
10463;SDS011;5279;42.048;24.638;2023-04-03T00:33:19;0.90;;;0.70;;
10463;SDS011;5279;42.048;24.638;2023-04-03T00:35:46;1.57;;;0.77;;
10463;SDS011;5279;42.048;24.638;2023-04-03T00:38:15;0.40;;;0.40;;
10463;SDS011;5279;42.048;24.638;2023-04-03T00:40:42;0.60;;;0.60;;
10463;SDS011;5279;42.048;24.638;2023-04-03T00:43:11;0.60;;;0.60;;
10463;SDS011;5279;42.048;24.638;2023-04-03T00:45:43;0.60;;;0.60;;
10463;SDS011;5279;42.048;24.638;2023-04-03T00:48:12;0.63;;;0.53;;
10463;SDS011;5279;42.048;24.638;2023-04-03T00:50:43;0.50;;;0.50;;
10463;SDS011;5279;42.048;24.638;2023-04-03T00:53:17;0.63;;;0.60;;
10463;SDS011;5279;42.048;24.638;2023-04-03T00:55:49;2.00;;;0.70;;
10463;SDS011;5279;42.048;24.638;2023-04-03T00:58:19;2.27;;;0.60;;
10463;SDS011;5279;42.048;24.638;2023-04-03T01:00:48;0.80;;;0.60;;
10463;SDS011;5279;42.048;24.638;2023-04-03T01:03:22;0.60;;;0.60;;
10463;SDS011;5279;42.048;24.638;2023-04-03T01:05:50;0.67;;;0.67;;
10463;SDS011;5279;42.048;24.638;2023-04-03T01:08:18;0.60;;;0.60;;
10463;SDS011;5279;42.048;24.638;2023-04-03T01:10:45;0.60;;;0.60;;
10463;SDS011;5279;42.048;24.638;2023-04-03T01:13:19;0.60;;;0.60;;
10463;SDS011;5279;42.048;24.638;2023-04-03T01:15:48;0.63;;;0.63;;
10463;SDS011;5279;42.048;24.638;2023-04-03T01:18:15;2.10;;;0.60;;
10463;SDS011;5279;42.048;24.638;2023-04-03T01:20:50;0.60;;;0.60;;
10463;SDS011;5279;42.048;24.638;2023-04-03T01:23:54;0.60;;;0.60;;
10463;SDS011;5279;42.048;24.638;2023-04-03T01:26:26;0.50;;;0.50;;
10463;SDS011;5279;42.048;24.638;2023-04-03T01:28:54;0.93;;;0.40;;
10463;SDS011;5279;42.048;24.638;2023-04-03T01:31:22;0.70;;;0.70;;
10463;SDS011;5279;42.048;24.638;2023-04-03T01:33:54;0.47;;;0.40;;
10463;SDS011;5279;42.048;24.638;2023-04-03T01:36:22;0.63;;;0.63;;
10463;SDS011;5279;42.048;24.638;2023-04-03T01:38:51;0.80;;;0.80;;
10463;SDS011;5279;42.048;24.638;2023-04-03T01:41:18;0.60;;;0.60;;
10463;SDS011;5279;42.048;24.638;2023-04-03T01:43:46;0.60;;;0.60;;
10463;SDS011;5279;42.048;24.638;2023-04-03T01:46:13;0.70;;;0.70;;
10463;SDS011;5279;42.048;24.638;2023-04-03T01:48:41;0.70;;;0.70;;
10463;SDS011;5279;42.048;24.638;2023-04-03T01:51:09;0.63;;;0.63;;
10463;SDS011;5279;42.048;24.638;2023-04-03T01:53:36;0.60;;;0.60;;
10463;SDS011;5279;42.048;24.638;2023-04-03T01:56:03;0.93;;;0.93;;
10463;SDS011;5279;42.048;24.638;2023-04-03T01:58:31;0.60;;;0.60;;
10463;SDS011;5279;42.048;24.638;2023-04-03T02:00:58;0.70;;;0.70;;
10463;SDS011;5279;42.048;24.638;2023-04-03T02:03:24;0.60;;;0.60;;
10463;SDS011;5279;42.048;24.638;2023-04-03T02:05:51;0.83;;;0.70;;
10463;SDS011;5279;42.048;24.638;2023-04-03T02:08:19;0.40;;;0.40;;
10463;SDS011;5279;42.048;24.638;2023-04-03T02:10:46;0.53;;;0.53;;
10463;SDS011;5279;42.048;24.638;2023-04-03T02:13:17;0.70;;;0.70;;
10463;SDS011;5279;42.048;24.638;2023-04-03T02:15:50;0.60;;;0.60;;
10463;SDS011;5279;42.048;24.638;2023-04-03T02:18:17;2.20;;;0.70;;
10463;SDS011;5279;42.048;24.638;2023-04-03T02:20:44;0.60;;;0.60;;
10463;SDS011;5279;42.048;24.638;2023-04-03T02:23:12;0.70;;;0.70;;
10463;SDS011;5279;42.048;24.638;2023-04-03T02:25:40;0.50;;;0.50;;
10463;SDS011;5279;42.048;24.638;2023-04-03T02:28:08;0.70;;;0.70;;
10463;SDS011;5279;42.048;24.638;2023-04-03T02:30:36;0.50;;;0.50;;
10463;SDS011;5279;42.048;24.638;2023-04-03T02:33:03;0.53;;;0.53;;
10463;SDS011;5279;42.048;24.638;2023-04-03T02:35:31;0.77;;;0.67;;
10463;SDS011;5279;42.048;24.638;2023-04-03T02:37:58;0.57;;;0.53;;
10463;SDS011;5279;42.048;24.638;2023-04-03T02:40:25;0.40;;;0.40;;
10463;SDS011;5279;42.048;24.638;2023-04-03T02:42:53;1.90;;;0.80;;
10463;SDS011;5279;42.048;24.638;2023-04-03T02:45:20;0.50;;;0.50;;
10463;SDS011;5279;42.048;24.638;2023-04-03T02:47:52;1.13;;;1.03;;
10463;SDS011;5279;42.048;24.638;2023-04-03T02:50:18;0.53;;;0.53;;
10463;SDS011;5279;42.048;24.638;2023-04-03T02:52:45;0.60;;;0.60;;
10463;SDS011;5279;42.048;24.638;2023-04-03T02:55:13;0.70;;;0.70;;
10463;SDS011;5279;42.048;24.638;2023-04-03T02:57:41;0.43;;;0.43;;
10463;SDS011;5279;42.048;24.638;2023-04-03T03:00:10;0.77;;;0.77;;
10463;SDS011;5279;42.048;24.638;2023-04-03T03:02:37;0.77;;;0.60;;
10463;SDS011;5279;42.048;24.638;2023-04-03T03:05:09;0.80;;;0.80;;
10463;SDS011;5279;42.048;24.638;2023-04-03T03:07:36;0.60;;;0.60;;
10463;SDS011;5279;42.048;24.638;2023-04-03T03:10:03;0.60;;;0.60;;
10463;SDS011;5279;42.048;24.638;2023-04-03T03:12:30;0.73;;;0.60;;
10463;SDS011;5279;42.048;24.638;2023-04-03T03:14:57;0.60;;;0.60;;
10463;SDS011;5279;42.048;24.638;2023-04-03T03:17:27;0.70;;;0.70;;
10463;SDS011;5279;42.048;24.638;2023-04-03T03:19:53;0.60;;;0.60;;
10463;SDS011;5279;42.048;24.638;2023-04-03T03:22:20;0.60;;;0.60;;
10463;SDS011;5279;42.048;24.638;2023-04-03T03:24:47;0.60;;;0.60;;
10463;SDS011;5279;42.048;24.638;2023-04-03T03:27:14;0.80;;;0.80;;
10463;SDS011;5279;42.048;24.638;2023-04-03T03:29:47;0.80;;;0.80;;
10463;SDS011;5279;42.048;24.638;2023-04-03T03:32:14;0.87;;;0.87;;
10463;SDS011;5279;42.048;24.638;2023-04-03T03:34:42;0.60;;;0.60;;
10463;SDS011;5279;42.048;24.638;2023-04-03T03:37:14;0.80;;;0.80;;
10463;SDS011;5279;42.048;24.638;2023-04-03T03:39:41;0.80;;;0.80;;
10463;SDS011;5279;42.048;24.638;2023-04-03T03:42:08;2.03;;;0.73;;
10463;SDS011;5279;42.048;24.638;2023-04-03T03:44:35;0.87;;;0.87;;
10463;SDS011;5279;42.048;24.638;2023-04-03T03:47:02;0.90;;;0.90;;
10463;SDS011;5279;42.048;24.638;2023-04-03T03:49:31;0.77;;;0.77;;
10463;SDS011;5279;42.048;24.638;2023-04-03T03:52:00;0.70;;;0.70;;
10463;SDS011;5279;42.048;24.638;2023-04-03T03:54:27;0.70;;;0.70;;
10463;SDS011;5279;42.048;24.638;2023-04-03T03:56:54;0.70;;;0.70;;
10463;SDS011;5279;42.048;24.638;2023-04-03T03:59:21;0.70;;;0.70;;
10463;SDS011;5279;42.048;24.638;2023-04-03T04:01:48;0.87;;;0.80;;
10463;SDS011;5279;42.048;24.638;2023-04-03T04:04:14;0.90;;;0.90;;
10463;SDS011;5279;42.048;24.638;2023-04-03T04:06:43;0.70;;;0.70;;
10463;SDS011;5279;42.048;24.638;2023-04-03T04:09:11;0.50;;;0.50;;
10463;SDS011;5279;42.048;24.638;2023-04-03T04:11:44;0.63;;;0.60;;
10463;SDS011;5279;42.048;24.638;2023-04-03T04:14:10;0.70;;;0.70;;
10463;SDS011;5279;42.048;24.638;2023-04-03T04:16:38;0.73;;;0.73;;
10463;SDS011;5279;42.048;24.638;2023-04-03T04:19:05;0.60;;;0.60;;
10463;SDS011;5279;42.048;24.638;2023-04-03T04:21:33;1.67;;;0.80;;
10463;SDS011;5279;42.048;24.638;2023-04-03T04:24:00;0.70;;;0.70;;
10463;SDS011;5279;42.048;24.638;2023-04-03T04:26:28;0.70;;;0.50;;
10463;SDS011;5279;42.048;24.638;2023-04-03T04:28:55;0.67;;;0.67;;
10463;SDS011;5279;42.048;24.638;2023-04-03T04:31:22;0.80;;;0.60;;
10463;SDS011;5279;42.048;24.638;2023-04-03T04:33:49;0.60;;;0.57;;
10463;SDS011;5279;42.048;24.638;2023-04-03T04:36:16;0.83;;;0.70;;
10463;SDS011;5279;42.048;24.638;2023-04-03T04:38:43;0.80;;;0.80;;
10463;SDS011;5279;42.048;24.638;2023-04-03T04:41:16;0.50;;;0.50;;
10463;SDS011;5279;42.048;24.638;2023-04-03T04:43:47;1.17;;;0.87;;
10463;SDS011;5279;42.048;24.638;2023-04-03T04:46:14;0.83;;;0.60;;
10463;SDS011;5279;42.048;24.638;2023-04-03T04:48:43;1.80;;;0.80;;
10463;SDS011;5279;42.048;24.638;2023-04-03T04:51:10;0.83;;;0.50;;
10463;SDS011;5279;42.048;24.638;2023-04-03T04:53:38;0.60;;;0.60;;
10463;SDS011;5279;42.048;24.638;2023-04-03T04:56:05;0.50;;;0.50;;
10463;SDS011;5279;42.048;24.638;2023-04-03T04:58:32;0.67;;;0.50;;
10463;SDS011;5279;42.048;24.638;2023-04-03T05:01:01;0.70;;;0.70;;
10463;SDS011;5279;42.048;24.638;2023-04-03T05:03:29;1.00;;;0.80;;
10463;SDS011;5279;42.048;24.638;2023-04-03T05:05:56;0.67;;;0.67;;
10463;SDS011;5279;42.048;24.638;2023-04-03T05:08:26;0.80;;;0.80;;
10463;SDS011;5279;42.048;24.638;2023-04-03T05:10:53;0.70;;;0.70;;
10463;SDS011;5279;42.048;24.638;2023-04-03T05:13:20;0.80;;;0.80;;
10463;SDS011;5279;42.048;24.638;2023-04-03T05:15:48;0.57;;;0.57;;
10463;SDS011;5279;42.048;24.638;2023-04-03T05:18:17;0.60;;;0.60;;
10463;SDS011;5279;42.048;24.638;2023-04-03T05:20:43;1.80;;;0.60;;
10463;SDS011;5279;42.048;24.638;2023-04-03T05:23:13;0.60;;;0.60;;
10463;SDS011;5279;42.048;24.638;2023-04-03T05:25:40;0.50;;;0.50;;
10463;SDS011;5279;42.048;24.638;2023-04-03T05:28:09;0.70;;;0.70;;
10463;SDS011;5279;42.048;24.638;2023-04-03T05:30:36;0.67;;;0.67;;
10463;SDS011;5279;42.048;24.638;2023-04-03T05:33:02;0.70;;;0.60;;
10463;SDS011;5279;42.048;24.638;2023-04-03T05:35:32;0.40;;;0.40;;
10463;SDS011;5279;42.048;24.638;2023-04-03T05:38:04;0.40;;;0.40;;
10463;SDS011;5279;42.048;24.638;2023-04-03T05:40:31;0.60;;;0.60;;
10463;SDS011;5279;42.048;24.638;2023-04-03T05:43:12;0.63;;;0.63;;
10463;SDS011;5279;42.048;24.638;2023-04-03T05:45:39;0.50;;;0.50;;
10463;SDS011;5279;42.048;24.638;2023-04-03T05:48:06;0.60;;;0.60;;
10463;SDS011;5279;42.048;24.638;2023-04-03T05:50:34;0.60;;;0.60;;
10463;SDS011;5279;42.048;24.638;2023-04-03T05:53:06;1.23;;;0.87;;
10463;SDS011;5279;42.048;24.638;2023-04-03T05:55:38;0.70;;;0.70;;
10463;SDS011;5279;42.048;24.638;2023-04-03T05:58:06;0.60;;;0.60;;
10463;SDS011;5279;42.048;24.638;2023-04-03T06:00:36;0.80;;;0.70;;
10463;SDS011;5279;42.048;24.638;2023-04-03T06:03:03;0.60;;;0.60;;
10463;SDS011;5279;42.048;24.638;2023-04-03T06:05:31;0.70;;;0.70;;
10463;SDS011;5279;42.048;24.638;2023-04-03T06:07:59;1.03;;;0.70;;
10463;SDS011;5279;42.048;24.638;2023-04-03T06:10:26;2.50;;;2.30;;
10463;SDS011;5279;42.048;24.638;2023-04-03T06:12:53;1.57;;;1.23;;
10463;SDS011;5279;42.048;24.638;2023-04-03T06:15:20;0.97;;;0.87;;
10463;SDS011;5279;42.048;24.638;2023-04-03T06:17:47;1.40;;;1.30;;
10463;SDS011;5279;42.048;24.638;2023-04-03T06:20:15;1.97;;;0.90;;
10463;SDS011;5279;42.048;24.638;2023-04-03T06:22:42;1.80;;;1.40;;
10463;SDS011;5279;42.048;24.638;2023-04-03T06:25:10;2.27;;;1.83;;
10463;SDS011;5279;42.048;24.638;2023-04-03T06:27:37;2.53;;;2.20;;
10463;SDS011;5279;42.048;24.638;2023-04-03T06:30:05;3.20;;;2.50;;
10463;SDS011;5279;42.048;24.638;2023-04-03T06:32:33;3.77;;;2.77;;
10463;SDS011;5279;42.048;24.638;2023-04-03T06:35:00;4.13;;;2.90;;
10463;SDS011;5279;42.048;24.638;2023-04-03T06:37:27;3.53;;;2.60;;
10463;SDS011;5279;42.048;24.638;2023-04-03T06:39:55;4.17;;;3.37;;
10463;SDS011;5279;42.048;24.638;2023-04-03T06:42:24;4.37;;;3.07;;
10463;SDS011;5279;42.048;24.638;2023-04-03T06:44:50;5.13;;;3.37;;
10463;SDS011;5279;42.048;24.638;2023-04-03T06:47:18;6.33;;;5.67;;
10463;SDS011;5279;42.048;24.638;2023-04-03T06:49:45;3.43;;;2.90;;
10463;SDS011;5279;42.048;24.638;2023-04-03T06:52:11;4.53;;;3.07;;
10463;SDS011;5279;42.048;24.638;2023-04-03T06:54:39;3.30;;;2.60;;
10463;SDS011;5279;42.048;24.638;2023-04-03T06:57:06;5.43;;;3.57;;
10463;SDS011;5279;42.048;24.638;2023-04-03T06:59:34;3.33;;;2.87;;
10463;SDS011;5279;42.048;24.638;2023-04-03T07:02:01;2.90;;;2.60;;
10463;SDS011;5279;42.048;24.638;2023-04-03T07:04:30;4.23;;;3.20;;
10463;SDS011;5279;42.048;24.638;2023-04-03T07:06:56;4.03;;;3.13;;
10463;SDS011;5279;42.048;24.638;2023-04-03T07:12:15;3.77;;;3.13;;
10463;SDS011;5279;42.048;24.638;2023-04-03T07:14:43;5.07;;;2.67;;
10463;SDS011;5279;42.048;24.638;2023-04-03T07:17:11;4.67;;;3.87;;
10463;SDS011;5279;42.048;24.638;2023-04-03T07:19:38;7.73;;;4.47;;
10463;SDS011;5279;42.048;24.638;2023-04-03T07:22:08;4.83;;;4.30;;
10463;SDS011;5279;42.048;24.638;2023-04-03T07:24:36;5.53;;;3.90;;
10463;SDS011;5279;42.048;24.638;2023-04-03T07:27:03;3.93;;;3.10;;
10463;SDS011;5279;42.048;24.638;2023-04-03T07:29:30;3.40;;;2.30;;
10463;SDS011;5279;42.048;24.638;2023-04-03T07:31:59;2.50;;;2.20;;
10463;SDS011;5279;42.048;24.638;2023-04-03T07:34:25;3.10;;;2.27;;
10463;SDS011;5279;42.048;24.638;2023-04-03T07:36:52;2.20;;;2.00;;
10463;SDS011;5279;42.048;24.638;2023-04-03T07:39:19;2.90;;;2.00;;
10463;SDS011;5279;42.048;24.638;2023-04-03T07:41:46;2.33;;;1.70;;
10463;SDS011;5279;42.048;24.638;2023-04-03T07:47:06;3.20;;;1.97;;
10463;SDS011;5279;42.048;24.638;2023-04-03T07:49:36;2.23;;;2.03;;
10463;SDS011;5279;42.048;24.638;2023-04-03T07:52:05;2.43;;;2.20;;
10463;SDS011;5279;42.048;24.638;2023-04-03T07:54:37;3.23;;;2.30;;
10463;SDS011;5279;42.048;24.638;2023-04-03T07:57:04;4.30;;;2.50;;
10463;SDS011;5279;42.048;24.638;2023-04-03T07:59:31;4.63;;;2.53;;
10463;SDS011;5279;42.048;24.638;2023-04-03T08:01:57;3.63;;;2.67;;
10463;SDS011;5279;42.048;24.638;2023-04-03T08:04:27;4.37;;;2.40;;
10463;SDS011;5279;42.048;24.638;2023-04-03T08:06:54;3.13;;;2.53;;
10463;SDS011;5279;42.048;24.638;2023-04-03T08:09:21;2.47;;;1.83;;
10463;SDS011;5279;42.048;24.638;2023-04-03T08:11:48;2.33;;;1.97;;
10463;SDS011;5279;42.048;24.638;2023-04-03T08:14:18;3.20;;;1.70;;
10463;SDS011;5279;42.048;24.638;2023-04-03T08:16:58;2.30;;;2.00;;
10463;SDS011;5279;42.048;24.638;2023-04-03T08:19:27;4.40;;;1.90;;
10463;SDS011;5279;42.048;24.638;2023-04-03T08:21:54;3.27;;;1.93;;
10463;SDS011;5279;42.048;24.638;2023-04-03T08:24:23;3.10;;;1.70;;
10463;SDS011;5279;42.048;24.638;2023-04-03T08:26:50;2.20;;;1.70;;
10463;SDS011;5279;42.048;24.638;2023-04-03T08:29:16;4.03;;;1.97;;
10463;SDS011;5279;42.048;24.638;2023-04-03T08:31:43;3.93;;;2.00;;
10463;SDS011;5279;42.048;24.638;2023-04-03T08:34:11;3.93;;;2.23;;
10463;SDS011;5279;42.048;24.638;2023-04-03T08:36:42;2.10;;;1.90;;
10463;SDS011;5279;42.048;24.638;2023-04-03T08:39:09;2.13;;;1.80;;
10463;SDS011;5279;42.048;24.638;2023-04-03T08:41:37;1.60;;;1.50;;
10463;SDS011;5279;42.048;24.638;2023-04-03T08:44:21;2.13;;;1.80;;
10463;SDS011;5279;42.048;24.638;2023-04-03T08:47:06;3.67;;;1.70;;
10463;SDS011;5279;42.048;24.638;2023-04-03T08:49:44;2.20;;;2.00;;
10463;SDS011;5279;42.048;24.638;2023-04-03T08:52:18;3.67;;;2.00;;
10463;SDS011;5279;42.048;24.638;2023-04-03T08:54:50;2.60;;;2.20;;
10463;SDS011;5279;42.048;24.638;2023-04-03T08:57:33;4.43;;;2.20;;
10463;SDS011;5279;42.048;24.638;2023-04-03T09:00:04;3.77;;;3.40;;
10463;SDS011;5279;42.048;24.638;2023-04-03T09:02:34;5.20;;;3.70;;
10463;SDS011;5279;42.048;24.638;2023-04-03T09:05:11;3.50;;;3.00;;
10463;SDS011;5279;42.048;24.638;2023-04-03T09:07:43;5.07;;;3.23;;
10463;SDS011;5279;42.048;24.638;2023-04-03T09:10:14;3.20;;;2.50;;
10463;SDS011;5279;42.048;24.638;2023-04-03T09:12:46;4.27;;;3.27;;
10463;SDS011;5279;42.048;24.638;2023-04-03T09:15:20;7.67;;;3.80;;
10463;SDS011;5279;42.048;24.638;2023-04-03T09:17:58;4.40;;;3.00;;
10463;SDS011;5279;42.048;24.638;2023-04-03T09:20:31;4.07;;;3.37;;
10463;SDS011;5279;42.048;24.638;2023-04-03T09:23:15;6.33;;;4.70;;
10463;SDS011;5279;42.048;24.638;2023-04-03T09:25:56;4.40;;;3.80;;
10463;SDS011;5279;42.048;24.638;2023-04-03T09:28:32;4.80;;;4.07;;
10463;SDS011;5279;42.048;24.638;2023-04-03T09:31:18;4.10;;;3.63;;
10463;SDS011;5279;42.048;24.638;2023-04-03T09:33:47;4.57;;;2.90;;
10463;SDS011;5279;42.048;24.638;2023-04-03T09:39:07;3.70;;;3.17;;
10463;SDS011;5279;42.048;24.638;2023-04-03T09:41:37;4.80;;;3.30;;
10463;SDS011;5279;42.048;24.638;2023-04-03T09:44:19;5.07;;;3.07;;
10463;SDS011;5279;42.048;24.638;2023-04-03T09:46:48;3.63;;;2.80;;
10463;SDS011;5279;42.048;24.638;2023-04-03T09:49:16;4.93;;;3.07;;
10463;SDS011;5279;42.048;24.638;2023-04-03T09:51:51;3.90;;;2.90;;
10463;SDS011;5279;42.048;24.638;2023-04-03T09:54:33;3.20;;;2.80;;
10463;SDS011;5279;42.048;24.638;2023-04-03T09:57:12;3.43;;;2.83;;
10463;SDS011;5279;42.048;24.638;2023-04-03T09:59:44;4.47;;;3.27;;
10463;SDS011;5279;42.048;24.638;2023-04-03T10:02:22;4.80;;;3.20;;
10463;SDS011;5279;42.048;24.638;2023-04-03T10:04:57;6.70;;;2.70;;
10463;SDS011;5279;42.048;24.638;2023-04-03T10:07:28;5.73;;;3.40;;
10463;SDS011;5279;42.048;24.638;2023-04-03T10:10:02;4.47;;;3.27;;
10463;SDS011;5279;42.048;24.638;2023-04-03T10:12:43;3.77;;;2.47;;
10463;SDS011;5279;42.048;24.638;2023-04-03T10:15:11;4.73;;;2.73;;
10463;SDS011;5279;42.048;24.638;2023-04-03T10:17:46;4.10;;;2.93;;
10463;SDS011;5279;42.048;24.638;2023-04-03T10:20:27;3.00;;;2.50;;
10463;SDS011;5279;42.048;24.638;2023-04-03T10:23:15;2.93;;;2.43;;
10463;SDS011;5279;42.048;24.638;2023-04-03T10:25:51;3.83;;;2.47;;
10463;SDS011;5279;42.048;24.638;2023-04-03T10:28:35;2.63;;;2.43;;
10463;SDS011;5279;42.048;24.638;2023-04-03T10:31:13;4.93;;;2.20;;
10463;SDS011;5279;42.048;24.638;2023-04-03T10:33:53;4.60;;;2.43;;
10463;SDS011;5279;42.048;24.638;2023-04-03T10:36:31;2.33;;;2.10;;
10463;SDS011;5279;42.048;24.638;2023-04-03T10:39:05;2.67;;;1.90;;
10463;SDS011;5279;42.048;24.638;2023-04-03T10:41:47;1.70;;;1.60;;
10463;SDS011;5279;42.048;24.638;2023-04-03T10:44:31;1.40;;;1.30;;
10463;SDS011;5279;42.048;24.638;2023-04-03T10:47:06;1.13;;;1.03;;
10463;SDS011;5279;42.048;24.638;2023-04-03T10:49:41;1.10;;;1.00;;
10463;SDS011;5279;42.048;24.638;2023-04-03T10:52:17;1.10;;;1.00;;
10463;SDS011;5279;42.048;24.638;2023-04-03T10:54:49;1.43;;;1.17;;
10463;SDS011;5279;42.048;24.638;2023-04-03T10:57:27;0.90;;;0.90;;
10463;SDS011;5279;42.048;24.638;2023-04-03T10:59:57;0.77;;;0.77;;
10463;SDS011;5279;42.048;24.638;2023-04-03T11:02:28;1.00;;;0.90;;
10463;SDS011;5279;42.048;24.638;2023-04-03T11:04:59;0.80;;;0.80;;
10463;SDS011;5279;42.048;24.638;2023-04-03T11:07:29;1.33;;;1.23;;
10463;SDS011;5279;42.048;24.638;2023-04-03T11:10:11;2.50;;;2.30;;
10463;SDS011;5279;42.048;24.638;2023-04-03T11:12:49;1.60;;;1.50;;
10463;SDS011;5279;42.048;24.638;2023-04-03T11:15:19;1.50;;;1.40;;
10463;SDS011;5279;42.048;24.638;2023-04-03T11:17:50;1.50;;;1.40;;
10463;SDS011;5279;42.048;24.638;2023-04-03T11:20:21;1.70;;;1.60;;
10463;SDS011;5279;42.048;24.638;2023-04-03T11:22:57;1.63;;;1.37;;
10463;SDS011;5279;42.048;24.638;2023-04-03T11:25:26;1.80;;;1.50;;
10463;SDS011;5279;42.048;24.638;2023-04-03T11:27:57;1.20;;;1.10;;
10463;SDS011;5279;42.048;24.638;2023-04-03T11:30:28;2.17;;;1.60;;
10463;SDS011;5279;42.048;24.638;2023-04-03T11:33:21;2.07;;;1.50;;
10463;SDS011;5279;42.048;24.638;2023-04-03T11:35:57;2.77;;;1.73;;
10463;SDS011;5279;42.048;24.638;2023-04-03T11:38:28;3.90;;;2.40;;
10463;SDS011;5279;42.048;24.638;2023-04-03T11:41:01;3.20;;;2.00;;
10463;SDS011;5279;42.048;24.638;2023-04-03T11:43:30;1.60;;;1.30;;
10463;SDS011;5279;42.048;24.638;2023-04-03T11:46:02;1.40;;;1.30;;
10463;SDS011;5279;42.048;24.638;2023-04-03T11:51:40;1.40;;;1.30;;
10463;SDS011;5279;42.048;24.638;2023-04-03T12:12:42;1.83;;;1.73;;
10463;SDS011;5279;42.048;24.638;2023-04-03T12:15:25;4.33;;;2.40;;
10463;SDS011;5279;42.048;24.638;2023-04-03T12:21:18;3.27;;;2.60;;
10463;SDS011;5279;42.048;24.638;2023-04-03T12:23:59;2.70;;;2.50;;
10463;SDS011;5279;42.048;24.638;2023-04-03T12:26:30;2.40;;;2.20;;
10463;SDS011;5279;42.048;24.638;2023-04-03T12:29:17;2.23;;;2.00;;
10463;SDS011;5279;42.048;24.638;2023-04-03T12:31:55;2.53;;;1.93;;
10463;SDS011;5279;42.048;24.638;2023-04-03T12:34:44;2.10;;;1.90;;
10463;SDS011;5279;42.048;24.638;2023-04-03T12:37:24;2.47;;;1.90;;
10463;SDS011;5279;42.048;24.638;2023-04-03T12:40:16;1.70;;;1.60;;
10463;SDS011;5279;42.048;24.638;2023-04-03T12:43:15;2.10;;;2.00;;
10463;SDS011;5279;42.048;24.638;2023-04-03T12:45:57;3.20;;;1.87;;
10463;SDS011;5279;42.048;24.638;2023-04-03T12:48:29;1.83;;;1.70;;
10463;SDS011;5279;42.048;24.638;2023-04-03T12:50:57;2.23;;;2.13;;
10463;SDS011;5279;42.048;24.638;2023-04-03T12:53:27;3.77;;;2.33;;
10463;SDS011;5279;42.048;24.638;2023-04-03T12:56:19;2.60;;;2.40;;
10463;SDS011;5279;42.048;24.638;2023-04-03T12:58:50;3.03;;;2.83;;
10463;SDS011;5279;42.048;24.638;2023-04-03T13:01:18;3.00;;;2.80;;
10463;SDS011;5279;42.048;24.638;2023-04-03T13:03:48;3.70;;;3.20;;
10463;SDS011;5279;42.048;24.638;2023-04-03T13:06:19;3.80;;;3.23;;
10463;SDS011;5279;42.048;24.638;2023-04-03T13:08:49;4.60;;;3.43;;
10463;SDS011;5279;42.048;24.638;2023-04-03T13:11:17;4.17;;;3.73;;
10463;SDS011;5279;42.048;24.638;2023-04-03T13:13:57;4.60;;;4.03;;
10463;SDS011;5279;42.048;24.638;2023-04-03T13:16:25;3.87;;;3.43;;
10463;SDS011;5279;42.048;24.638;2023-04-03T13:18:52;3.87;;;3.47;;
10463;SDS011;5279;42.048;24.638;2023-04-03T13:21:21;3.10;;;2.90;;
10463;SDS011;5279;42.048;24.638;2023-04-03T13:23:53;4.00;;;3.43;;
10463;SDS011;5279;42.048;24.638;2023-04-03T13:26:23;4.70;;;4.10;;
10463;SDS011;5279;42.048;24.638;2023-04-03T13:28:53;3.50;;;3.00;;
10463;SDS011;5279;42.048;24.638;2023-04-03T13:31:25;5.13;;;3.90;;
10463;SDS011;5279;42.048;24.638;2023-04-03T13:33:56;3.50;;;3.20;;
10463;SDS011;5279;42.048;24.638;2023-04-03T13:36:37;5.07;;;3.93;;
10463;SDS011;5279;42.048;24.638;2023-04-03T13:39:21;4.40;;;4.00;;
10463;SDS011;5279;42.048;24.638;2023-04-03T13:41:50;5.37;;;3.70;;
10463;SDS011;5279;42.048;24.638;2023-04-03T13:44:26;4.47;;;3.80;;
10463;SDS011;5279;42.048;24.638;2023-04-03T13:46:55;4.40;;;3.50;;
10463;SDS011;5279;42.048;24.638;2023-04-03T13:49:29;4.97;;;3.90;;
10463;SDS011;5279;42.048;24.638;2023-04-03T13:51:58;5.27;;;4.77;;
10463;SDS011;5279;42.048;24.638;2023-04-03T13:54:31;5.83;;;3.83;;
10463;SDS011;5279;42.048;24.638;2023-04-03T13:57:00;5.03;;;4.40;;
10463;SDS011;5279;42.048;24.638;2023-04-03T13:59:30;4.43;;;4.03;;
10463;SDS011;5279;42.048;24.638;2023-04-03T14:02:10;5.23;;;3.87;;
10463;SDS011;5279;42.048;24.638;2023-04-03T14:04:46;6.00;;;4.93;;
10463;SDS011;5279;42.048;24.638;2023-04-03T14:07:17;5.17;;;4.67;;
10463;SDS011;5279;42.048;24.638;2023-04-03T14:09:46;6.07;;;5.50;;
10463;SDS011;5279;42.048;24.638;2023-04-03T14:12:15;6.00;;;4.90;;
10463;SDS011;5279;42.048;24.638;2023-04-03T14:14:44;4.33;;;3.93;;
10463;SDS011;5279;42.048;24.638;2023-04-03T14:17:18;4.10;;;3.70;;
10463;SDS011;5279;42.048;24.638;2023-04-03T14:19:48;4.73;;;4.33;;
10463;SDS011;5279;42.048;24.638;2023-04-03T14:22:17;6.60;;;4.00;;
10463;SDS011;5279;42.048;24.638;2023-04-03T14:24:51;5.90;;;4.63;;
10463;SDS011;5279;42.048;24.638;2023-04-03T14:27:24;4.77;;;4.30;;
10463;SDS011;5279;42.048;24.638;2023-04-03T14:29:54;7.13;;;5.40;;
10463;SDS011;5279;42.048;24.638;2023-04-03T14:32:27;5.93;;;5.40;;
10463;SDS011;5279;42.048;24.638;2023-04-03T14:34:55;6.37;;;4.77;;
10463;SDS011;5279;42.048;24.638;2023-04-03T14:37:23;6.07;;;5.47;;
10463;SDS011;5279;42.048;24.638;2023-04-03T14:39:54;7.50;;;5.73;;
10463;SDS011;5279;42.048;24.638;2023-04-03T14:42:24;8.37;;;6.07;;
10463;SDS011;5279;42.048;24.638;2023-04-03T14:44:54;9.03;;;6.50;;
10463;SDS011;5279;42.048;24.638;2023-04-03T14:47:22;10.77;;;7.17;;
10463;SDS011;5279;42.048;24.638;2023-04-03T14:49:52;7.80;;;7.03;;
10463;SDS011;5279;42.048;24.638;2023-04-03T14:52:20;10.33;;;8.47;;
10463;SDS011;5279;42.048;24.638;2023-04-03T14:54:49;10.73;;;9.63;;
10463;SDS011;5279;42.048;24.638;2023-04-03T14:57:18;12.73;;;9.80;;
10463;SDS011;5279;42.048;24.638;2023-04-03T14:59:47;10.47;;;8.70;;
10463;SDS011;5279;42.048;24.638;2023-04-03T15:02:22;11.03;;;8.73;;
10463;SDS011;5279;42.048;24.638;2023-04-03T15:04:52;12.37;;;9.03;;
10463;SDS011;5279;42.048;24.638;2023-04-03T15:07:19;12.87;;;9.77;;
10463;SDS011;5279;42.048;24.638;2023-04-03T15:09:46;13.50;;;9.80;;
10463;SDS011;5279;42.048;24.638;2023-04-03T15:12:13;12.47;;;10.67;;
10463;SDS011;5279;42.048;24.638;2023-04-03T15:14:42;13.90;;;10.37;;
10463;SDS011;5279;42.048;24.638;2023-04-03T15:17:10;14.10;;;10.37;;
10463;SDS011;5279;42.048;24.638;2023-04-03T15:19:45;10.90;;;8.80;;
10463;SDS011;5279;42.048;24.638;2023-04-03T15:22:13;9.63;;;8.63;;
10463;SDS011;5279;42.048;24.638;2023-04-03T15:24:40;12.80;;;9.43;;
10463;SDS011;5279;42.048;24.638;2023-04-03T15:27:08;8.67;;;7.40;;
10463;SDS011;5279;42.048;24.638;2023-04-03T15:29:39;8.63;;;6.67;;
10463;SDS011;5279;42.048;24.638;2023-04-03T15:32:08;9.00;;;6.80;;
10463;SDS011;5279;42.048;24.638;2023-04-03T15:34:36;5.93;;;5.27;;
10463;SDS011;5279;42.048;24.638;2023-04-03T15:37:04;8.07;;;5.07;;
10463;SDS011;5279;42.048;24.638;2023-04-03T15:39:31;5.23;;;4.73;;
10463;SDS011;5279;42.048;24.638;2023-04-03T15:41:58;5.70;;;4.10;;